This is the latest recevied weather packets stored in our database for station/object K4SHP-16. If no packets are shown the sender has not sent any weather packets the latest 10 day(s).
| Time | Temp. | Humidity | Pressure | Rain* | Wind** | Luminosity | Snow |
|---|---|---|---|---|---|---|---|
| 1777875483 | 8.89° C | 89% | 1018.9 hPa | 0 mm | - | - | - |
| 1777872963 | 10° C | 88% | 1019.1 hPa | 0 mm | - | - | - |
| 1777871883 | 10° C | 88% | 1019 hPa | 0 mm | - | - | - |
| 1777870803 | 10.56° C | 88% | 1019 hPa | 0 mm | - | - | - |
| 1777868283 | 11.11° C | 87% | 1019 hPa | 0 mm | - | - | - |
| 1777867203 | 11.67° C | 85% | 1019 hPa | 0 mm | - | - | - |
| 1777864683 | 12.22° C | 83% | 1018.9 hPa | 0 mm | - | - | - |
| 1777863605 | 12.22° C | 84% | 1019 hPa | 0 mm | - | - | - |
| 1777859105 | 12.78° C | 82% | 1018.6 hPa | 0 mm | - | - | - |
| 1777858585 | 12.78° C | 82% | 1018.5 hPa | 0 mm | - | - | - |
| 1777856945 | 12.22° C | 85% | 1018.2 hPa | 0 mm | - | - | - |
| 1777852804 | 15.56° C | 71% | 1017.5 hPa | 0 mm | - | - | - |
| 1777850825 | 17.22° C | 60% | 1017.3 hPa | 0 mm | - | - | - |
| 1777841645 | 21.11° C | 55% | 1017.4 hPa | 0 mm | - | - | - |
| 1777838404 | 21.11° C | 49% | 1018.1 hPa | 0 mm | - | - | - |
| 1777838065 | 21.67° C | 47% | 1018.1 hPa | 0 mm | - | - | - |
| 1777837504 | 21.11° C | 47% | 1018.3 hPa | 0 mm | - | - | - |
| 1777833904 | 20° C | 52% | 1018.8 hPa | 0.25 mm | - | - | - |
| 1777827604 | 17.78° C | 52% | 1020 hPa | 0 mm | - | - | - |
| 1777822024 | 15.56° C | 53% | 1020.9 hPa | 0 mm | - | - | - |
| 1777819504 | 15° C | 59% | 1020.3 hPa | 0 mm | - | - | - |
| 1777817344 | 13.89° C | 67% | 1020.2 hPa | 0 mm | - | - | - |
| 1777816804 | 13.89° C | 74% | 1020.3 hPa | 0 mm | - | - | - |
| 1777811224 | 9.44° C | 94% | 1019.9 hPa | 0 mm | - | - | - |
| 1777810684 | 8.89° C | 94% | 1019.8 hPa | 0 mm | - | - | - |
* Rain latest hour (hover to see other rain measurements)
** Current wind speed in m/s (hover to see current wind gust speed)